sensor_id;sensor_type;location;lat;lon;timestamp;temperature;humidity
40023;DHT22;25713;-35.352;149.036;2023-12-07T00:00:12;21.30;75.60
40023;DHT22;25713;-35.352;149.036;2023-12-07T00:02:40;21.40;74.20
40023;DHT22;25713;-35.352;149.036;2023-12-07T00:05:09;21.40;78.40
40023;DHT22;25713;-35.352;149.036;2023-12-07T00:07:39;21.40;75.40
40023;DHT22;25713;-35.352;149.036;2023-12-07T00:10:09;21.40;77.90
40023;DHT22;25713;-35.352;149.036;2023-12-07T00:12:38;21.40;77.90
40023;DHT22;25713;-35.352;149.036;2023-12-07T00:15:08;21.40;76.40
40023;DHT22;25713;-35.352;149.036;2023-12-07T00:17:40;21.50;76.50
40023;DHT22;25713;-35.352;149.036;2023-12-07T00:20:10;21.50;76.00
40023;DHT22;25713;-35.352;149.036;2023-12-07T00:22:39;21.60;75.40
40023;DHT22;25713;-35.352;149.036;2023-12-07T00:25:09;21.70;74.40
40023;DHT22;25713;-35.352;149.036;2023-12-07T00:27:39;21.70;75.20
40023;DHT22;25713;-35.352;149.036;2023-12-07T00:30:09;21.70;75.40
40023;DHT22;25713;-35.352;149.036;2023-12-07T00:32:41;21.80;73.30
40023;DHT22;25713;-35.352;149.036;2023-12-07T00:35:11;21.90;75.00
40023;DHT22;25713;-35.352;149.036;2023-12-07T00:37:40;21.80;73.50
40023;DHT22;25713;-35.352;149.036;2023-12-07T00:40:14;22.00;71.10
40023;DHT22;25713;-35.352;149.036;2023-12-07T00:42:44;22.10;70.90
40023;DHT22;25713;-35.352;149.036;2023-12-07T00:45:14;22.10;73.90
40023;DHT22;25713;-35.352;149.036;2023-12-07T00:47:47;22.20;72.40
40023;DHT22;25713;-35.352;149.036;2023-12-07T00:50:17;22.20;72.60
40023;DHT22;25713;-35.352;149.036;2023-12-07T00:52:47;22.20;72.70
40023;DHT22;25713;-35.352;149.036;2023-12-07T00:55:19;22.40;69.40
40023;DHT22;25713;-35.352;149.036;2023-12-07T00:57:49;22.30;71.00
40023;DHT22;25713;-35.352;149.036;2023-12-07T01:00:19;22.40;68.20
40023;DHT22;25713;-35.352;149.036;2023-12-07T01:02:52;22.80;62.30
40023;DHT22;25713;-35.352;149.036;2023-12-07T01:05:22;22.80;66.10
40023;DHT22;25713;-35.352;149.036;2023-12-07T01:07:53;22.90;66.60
40023;DHT22;25713;-35.352;149.036;2023-12-07T01:10:23;22.90;68.10
40023;DHT22;25713;-35.352;149.036;2023-12-07T01:12:55;22.90;65.60
40023;DHT22;25713;-35.352;149.036;2023-12-07T01:15:25;23.10;64.40
40023;DHT22;25713;-35.352;149.036;2023-12-07T01:17:57;23.30;64.10
40023;DHT22;25713;-35.352;149.036;2023-12-07T01:20:27;23.40;63.50
40023;DHT22;25713;-35.352;149.036;2023-12-07T01:22:58;23.50;59.50
40023;DHT22;25713;-35.352;149.036;2023-12-07T01:25:29;23.50;60.20
40023;DHT22;25713;-35.352;149.036;2023-12-07T01:27:59;23.30;63.90
40023;DHT22;25713;-35.352;149.036;2023-12-07T01:30:30;23.50;59.70
40023;DHT22;25713;-35.352;149.036;2023-12-07T01:33:02;23.30;62.50
40023;DHT22;25713;-35.352;149.036;2023-12-07T01:35:32;23.50;61.50
40023;DHT22;25713;-35.352;149.036;2023-12-07T01:38:02;23.30;64.20
40023;DHT22;25713;-35.352;149.036;2023-12-07T01:40:32;23.30;61.40
40023;DHT22;25713;-35.352;149.036;2023-12-07T01:43:02;23.40;59.10
40023;DHT22;25713;-35.352;149.036;2023-12-07T01:45:32;23.50;57.40
40023;DHT22;25713;-35.352;149.036;2023-12-07T01:48:05;23.50;59.20
40023;DHT22;25713;-35.352;149.036;2023-12-07T01:50:36;23.60;57.40
40023;DHT22;25713;-35.352;149.036;2023-12-07T01:53:06;23.60;57.40
40023;DHT22;25713;-35.352;149.036;2023-12-07T01:55:37;23.50;58.00
40023;DHT22;25713;-35.352;149.036;2023-12-07T01:58:07;23.40;58.20
40023;DHT22;25713;-35.352;149.036;2023-12-07T02:00:37;23.40;55.40
40023;DHT22;25713;-35.352;149.036;2023-12-07T02:03:14;23.40;56.80
40023;DHT22;25713;-35.352;149.036;2023-12-07T02:05:48;23.20;58.20
40023;DHT22;25713;-35.352;149.036;2023-12-07T02:08:18;23.10;59.80
40023;DHT22;25713;-35.352;149.036;2023-12-07T02:10:49;22.90;58.60
40023;DHT22;25713;-35.352;149.036;2023-12-07T02:13:21;22.90;59.40
40023;DHT22;25713;-35.352;149.036;2023-12-07T02:15:52;22.80;59.60
40023;DHT22;25713;-35.352;149.036;2023-12-07T02:18:28;23.10;58.20
40023;DHT22;25713;-35.352;149.036;2023-12-07T02:21:06;23.00;59.20
40023;DHT22;25713;-35.352;149.036;2023-12-07T02:23:43;23.00;59.50
40023;DHT22;25713;-35.352;149.036;2023-12-07T02:26:15;23.10;59.70
40023;DHT22;25713;-35.352;149.036;2023-12-07T02:28:50;23.10;57.50
40023;DHT22;25713;-35.352;149.036;2023-12-07T02:31:20;23.10;57.60
40023;DHT22;25713;-35.352;149.036;2023-12-07T02:33:50;23.10;60.80
40023;DHT22;25713;-35.352;149.036;2023-12-07T02:36:21;23.20;59.50
40023;DHT22;25713;-35.352;149.036;2023-12-07T02:38:52;23.40;59.10
40023;DHT22;25713;-35.352;149.036;2023-12-07T02:41:27;23.40;55.40
40023;DHT22;25713;-35.352;149.036;2023-12-07T02:44:00;23.60;61.40
40023;DHT22;25713;-35.352;149.036;2023-12-07T02:46:31;23.40;59.20
40023;DHT22;25713;-35.352;149.036;2023-12-07T02:49:03;23.40;58.10
40023;DHT22;25713;-35.352;149.036;2023-12-07T02:51:33;23.40;58.60
40023;DHT22;25713;-35.352;149.036;2023-12-07T02:54:04;23.40;58.70
40023;DHT22;25713;-35.352;149.036;2023-12-07T02:56:34;23.40;55.30
40023;DHT22;25713;-35.352;149.036;2023-12-07T02:59:07;23.40;59.60
40023;DHT22;25713;-35.352;149.036;2023-12-07T03:01:38;23.30;58.70
40023;DHT22;25713;-35.352;149.036;2023-12-07T03:04:09;23.30;60.70
40023;DHT22;25713;-35.352;149.036;2023-12-07T03:06:39;23.20;60.50
40023;DHT22;25713;-35.352;149.036;2023-12-07T03:09:13;23.20;59.90
40023;DHT22;25713;-35.352;149.036;2023-12-07T03:11:43;23.40;59.90
40023;DHT22;25713;-35.352;149.036;2023-12-07T03:14:16;23.50;56.40
40023;DHT22;25713;-35.352;149.036;2023-12-07T03:16:46;23.60;56.20
40023;DHT22;25713;-35.352;149.036;2023-12-07T03:19:18;23.50;57.10
40023;DHT22;25713;-35.352;149.036;2023-12-07T03:21:48;23.50;58.20
40023;DHT22;25713;-35.352;149.036;2023-12-07T03:24:18;23.50;58.00
40023;DHT22;25713;-35.352;149.036;2023-12-07T03:26:49;23.50;57.20
40023;DHT22;25713;-35.352;149.036;2023-12-07T03:29:21;23.50;57.80
40023;DHT22;25713;-35.352;149.036;2023-12-07T03:31:52;23.40;60.00
40023;DHT22;25713;-35.352;149.036;2023-12-07T03:34:22;23.50;56.30
40023;DHT22;25713;-35.352;149.036;2023-12-07T03:36:53;23.70;55.10
40023;DHT22;25713;-35.352;149.036;2023-12-07T03:39:23;23.70;57.10
40023;DHT22;25713;-35.352;149.036;2023-12-07T03:41:53;23.60;55.00
40023;DHT22;25713;-35.352;149.036;2023-12-07T03:44:25;23.60;55.00
40023;DHT22;25713;-35.352;149.036;2023-12-07T03:46:56;23.50;58.30
40023;DHT22;25713;-35.352;149.036;2023-12-07T03:49:26;23.50;57.00
40023;DHT22;25713;-35.352;149.036;2023-12-07T03:51:57;23.40;58.30
40023;DHT22;25713;-35.352;149.036;2023-12-07T03:54:27;23.30;59.50
40023;DHT22;25713;-35.352;149.036;2023-12-07T03:56:57;23.10;59.60
40023;DHT22;25713;-35.352;149.036;2023-12-07T03:59:29;23.00;61.40
40023;DHT22;25713;-35.352;149.036;2023-12-07T04:01:59;23.00;59.50
40023;DHT22;25713;-35.352;149.036;2023-12-07T04:04:29;23.00;59.80
40023;DHT22;25713;-35.352;149.036;2023-12-07T04:06:59;23.10;58.30
40023;DHT22;25713;-35.352;149.036;2023-12-07T04:09:29;23.10;58.90
40023;DHT22;25713;-35.352;149.036;2023-12-07T04:11:59;23.20;57.80
40023;DHT22;25713;-35.352;149.036;2023-12-07T04:14:31;23.10;58.70
40023;DHT22;25713;-35.352;149.036;2023-12-07T04:17:01;23.10;58.30
40023;DHT22;25713;-35.352;149.036;2023-12-07T04:19:31;23.20;58.20
40023;DHT22;25713;-35.352;149.036;2023-12-07T04:22:01;23.20;58.20
40023;DHT22;25713;-35.352;149.036;2023-12-07T04:24:31;23.20;60.10
40023;DHT22;25713;-35.352;149.036;2023-12-07T04:27:01;23.10;59.70
40023;DHT22;25713;-35.352;149.036;2023-12-07T04:29:33;23.20;59.00
40023;DHT22;25713;-35.352;149.036;2023-12-07T04:32:02;23.20;59.80
40023;DHT22;25713;-35.352;149.036;2023-12-07T04:34:32;23.20;59.00
40023;DHT22;25713;-35.352;149.036;2023-12-07T04:37:02;23.20;58.50
40023;DHT22;25713;-35.352;149.036;2023-12-07T04:39:32;23.10;61.30
40023;DHT22;25713;-35.352;149.036;2023-12-07T04:42:02;22.90;61.50
40023;DHT22;25713;-35.352;149.036;2023-12-07T04:44:34;22.80;62.50
40023;DHT22;25713;-35.352;149.036;2023-12-07T04:47:04;22.80;62.60
40023;DHT22;25713;-35.352;149.036;2023-12-07T04:49:34;22.90;61.20
40023;DHT22;25713;-35.352;149.036;2023-12-07T04:52:04;22.90;62.30
40023;DHT22;25713;-35.352;149.036;2023-12-07T04:54:52;22.70;62.60
40023;DHT22;25713;-35.352;149.036;2023-12-07T04:57:22;22.60;63.80
40023;DHT22;25713;-35.352;149.036;2023-12-07T04:59:54;22.70;61.60
40023;DHT22;25713;-35.352;149.036;2023-12-07T05:02:24;22.80;60.60
40023;DHT22;25713;-35.352;149.036;2023-12-07T05:04:53;22.90;60.20
40023;DHT22;25713;-35.352;149.036;2023-12-07T05:07:23;22.80;62.60
40023;DHT22;25713;-35.352;149.036;2023-12-07T05:09:52;22.70;62.30
40023;DHT22;25713;-35.352;149.036;2023-12-07T05:12:36;22.80;62.70
40023;DHT22;25713;-35.352;149.036;2023-12-07T05:15:09;22.80;63.40
40023;DHT22;25713;-35.352;149.036;2023-12-07T05:17:38;22.90;63.00
40023;DHT22;25713;-35.352;149.036;2023-12-07T05:20:08;23.00;61.10
40023;DHT22;25713;-35.352;149.036;2023-12-07T05:22:38;23.00;62.00
40023;DHT22;25713;-35.352;149.036;2023-12-07T05:25:08;22.90;63.60
40023;DHT22;25713;-35.352;149.036;2023-12-07T05:27:38;22.90;63.10
40023;DHT22;25713;-35.352;149.036;2023-12-07T05:30:10;22.90;63.80
40023;DHT22;25713;-35.352;149.036;2023-12-07T05:32:40;22.90;64.90
40023;DHT22;25713;-35.352;149.036;2023-12-07T05:35:09;22.90;64.80
40023;DHT22;25713;-35.352;149.036;2023-12-07T05:37:39;22.90;63.50
40023;DHT22;25713;-35.352;149.036;2023-12-07T05:40:09;23.00;64.70
40023;DHT22;25713;-35.352;149.036;2023-12-07T05:42:39;22.90;64.90
40023;DHT22;25713;-35.352;149.036;2023-12-07T05:45:11;22.80;64.90
40023;DHT22;25713;-35.352;149.036;2023-12-07T05:47:41;22.70;65.60
40023;DHT22;25713;-35.352;149.036;2023-12-07T05:50:10;22.80;64.70
40023;DHT22;25713;-35.352;149.036;2023-12-07T05:52:40;22.90;62.90
40023;DHT22;25713;-35.352;149.036;2023-12-07T05:55:09;22.90;62.90
40023;DHT22;25713;-35.352;149.036;2023-12-07T05:57:39;22.80;65.90
40023;DHT22;25713;-35.352;149.036;2023-12-07T06:00:13;22.70;66.20
40023;DHT22;25713;-35.352;149.036;2023-12-07T06:02:43;22.80;64.80
40023;DHT22;25713;-35.352;149.036;2023-12-07T06:05:12;22.90;62.70
40023;DHT22;25713;-35.352;149.036;2023-12-07T06:07:42;22.90;63.30
40023;DHT22;25713;-35.352;149.036;2023-12-07T06:10:11;23.10;61.10
40023;DHT22;25713;-35.352;149.036;2023-12-07T06:12:41;23.20;62.30
40023;DHT22;25713;-35.352;149.036;2023-12-07T06:15:12;23.10;62.40
40023;DHT22;25713;-35.352;149.036;2023-12-07T06:17:42;23.20;61.30
40023;DHT22;25713;-35.352;149.036;2023-12-07T06:20:12;23.20;61.50
40023;DHT22;25713;-35.352;149.036;2023-12-07T06:22:41;23.20;61.70
40023;DHT22;25713;-35.352;149.036;2023-12-07T06:25:11;23.20;61.30
40023;DHT22;25713;-35.352;149.036;2023-12-07T06:27:40;23.20;60.70
40023;DHT22;25713;-35.352;149.036;2023-12-07T06:30:12;23.20;61.90
40023;DHT22;25713;-35.352;149.036;2023-12-07T06:32:42;23.20;61.70
40023;DHT22;25713;-35.352;149.036;2023-12-07T06:35:13;23.20;61.90
40023;DHT22;25713;-35.352;149.036;2023-12-07T06:37:43;23.20;63.40
40023;DHT22;25713;-35.352;149.036;2023-12-07T06:40:13;23.20;62.40
40023;DHT22;25713;-35.352;149.036;2023-12-07T06:42:42;23.20;61.80
40023;DHT22;25713;-35.352;149.036;2023-12-07T06:45:14;23.30;61.00
40023;DHT22;25713;-35.352;149.036;2023-12-07T06:47:43;23.40;61.30
40023;DHT22;25713;-35.352;149.036;2023-12-07T06:50:13;23.40;59.90
40023;DHT22;25713;-35.352;149.036;2023-12-07T06:52:42;23.40;62.10
40023;DHT22;25713;-35.352;149.036;2023-12-07T06:55:12;23.40;59.80
40023;DHT22;25713;-35.352;149.036;2023-12-07T06:57:41;23.40;60.60
40023;DHT22;25713;-35.352;149.036;2023-12-07T07:00:13;23.30;61.40
40023;DHT22;25713;-35.352;149.036;2023-12-07T07:02:42;23.20;62.80
40023;DHT22;25713;-35.352;149.036;2023-12-07T07:05:11;23.10;62.40
40023;DHT22;25713;-35.352;149.036;2023-12-07T07:07:41;23.10;61.50
40023;DHT22;25713;-35.352;149.036;2023-12-07T07:10:10;23.20;62.70
40023;DHT22;25713;-35.352;149.036;2023-12-07T07:12:40;23.20;61.30
40023;DHT22;25713;-35.352;149.036;2023-12-07T07:15:12;23.20;61.80
40023;DHT22;25713;-35.352;149.036;2023-12-07T07:17:41;23.10;61.70
40023;DHT22;25713;-35.352;149.036;2023-12-07T07:20:11;23.10;63.10
40023;DHT22;25713;-35.352;149.036;2023-12-07T07:22:40;23.00;62.80
40023;DHT22;25713;-35.352;149.036;2023-12-07T07:25:10;23.10;62.00
40023;DHT22;25713;-35.352;149.036;2023-12-07T07:27:40;23.20;62.00
40023;DHT22;25713;-35.352;149.036;2023-12-07T07:30:12;23.20;62.70
40023;DHT22;25713;-35.352;149.036;2023-12-07T07:32:40;23.10;63.30
40023;DHT22;25713;-35.352;149.036;2023-12-07T07:35:10;23.00;62.50
40023;DHT22;25713;-35.352;149.036;2023-12-07T07:37:40;23.00;64.00
40023;DHT22;25713;-35.352;149.036;2023-12-07T07:40:10;23.00;62.90
40023;DHT22;25713;-35.352;149.036;2023-12-07T07:42:40;23.00;63.80
40023;DHT22;25713;-35.352;149.036;2023-12-07T07:45:12;23.00;65.00
40023;DHT22;25713;-35.352;149.036;2023-12-07T07:47:42;23.10;64.40
40023;DHT22;25713;-35.352;149.036;2023-12-07T07:50:11;23.10;63.80
40023;DHT22;25713;-35.352;149.036;2023-12-07T07:52:41;23.10;64.00
40023;DHT22;25713;-35.352;149.036;2023-12-07T07:55:11;23.00;64.50
40023;DHT22;25713;-35.352;149.036;2023-12-07T07:57:41;23.10;63.00
40023;DHT22;25713;-35.352;149.036;2023-12-07T08:00:13;23.10;64.20
40023;DHT22;25713;-35.352;149.036;2023-12-07T08:02:43;23.20;62.30
40023;DHT22;25713;-35.352;149.036;2023-12-07T08:05:12;23.20;63.20
40023;DHT22;25713;-35.352;149.036;2023-12-07T08:07:42;23.20;63.90
40023;DHT22;25713;-35.352;149.036;2023-12-07T08:10:11;23.10;63.30
40023;DHT22;25713;-35.352;149.036;2023-12-07T08:12:41;23.10;64.30
40023;DHT22;25713;-35.352;149.036;2023-12-07T08:15:13;23.00;64.60
40023;DHT22;25713;-35.352;149.036;2023-12-07T08:17:41;22.90;65.20
40023;DHT22;25713;-35.352;149.036;2023-12-07T08:20:11;23.00;64.30
40023;DHT22;25713;-35.352;149.036;2023-12-07T08:22:41;23.00;64.40
40023;DHT22;25713;-35.352;149.036;2023-12-07T08:25:12;23.00;65.00
40023;DHT22;25713;-35.352;149.036;2023-12-07T08:27:41;22.90;65.20
40023;DHT22;25713;-35.352;149.036;2023-12-07T08:30:13;22.90;65.90
40023;DHT22;25713;-35.352;149.036;2023-12-07T08:32:42;22.90;65.70
40023;DHT22;25713;-35.352;149.036;2023-12-07T08:35:12;22.80;66.40
40023;DHT22;25713;-35.352;149.036;2023-12-07T08:37:41;22.80;65.30
40023;DHT22;25713;-35.352;149.036;2023-12-07T08:40:11;22.80;65.30
40023;DHT22;25713;-35.352;149.036;2023-12-07T08:42:43;22.80;66.30
40023;DHT22;25713;-35.352;149.036;2023-12-07T08:45:16;22.80;66.30
40023;DHT22;25713;-35.352;149.036;2023-12-07T08:47:46;22.70;66.70
40023;DHT22;25713;-35.352;149.036;2023-12-07T08:50:15;22.70;67.10
40023;DHT22;25713;-35.352;149.036;2023-12-07T08:52:44;22.60;66.80
40023;DHT22;25713;-35.352;149.036;2023-12-07T08:55:14;22.60;67.40
40023;DHT22;25713;-35.352;149.036;2023-12-07T08:57:44;22.60;67.00
40023;DHT22;25713;-35.352;149.036;2023-12-07T09:00:16;22.60;67.00
40023;DHT22;25713;-35.352;149.036;2023-12-07T09:02:46;22.60;66.60
40023;DHT22;25713;-35.352;149.036;2023-12-07T09:05:15;22.60;66.40
40023;DHT22;25713;-35.352;149.036;2023-12-07T09:07:45;22.60;66.50
40023;DHT22;25713;-35.352;149.036;2023-12-07T09:10:14;22.60;66.30
40023;DHT22;25713;-35.352;149.036;2023-12-07T09:12:43;22.60;66.40
40023;DHT22;25713;-35.352;149.036;2023-12-07T09:15:16;22.60;67.20
40023;DHT22;25713;-35.352;149.036;2023-12-07T09:17:46;22.60;66.60
40023;DHT22;25713;-35.352;149.036;2023-12-07T09:20:15;22.50;67.30
40023;DHT22;25713;-35.352;149.036;2023-12-07T09:22:45;22.50;67.20
40023;DHT22;25713;-35.352;149.036;2023-12-07T09:25:16;22.50;67.00
40023;DHT22;25713;-35.352;149.036;2023-12-07T09:27:46;22.50;67.40
40023;DHT22;25713;-35.352;149.036;2023-12-07T09:30:17;22.40;67.20
40023;DHT22;25713;-35.352;149.036;2023-12-07T09:32:47;22.40;66.90
40023;DHT22;25713;-35.352;149.036;2023-12-07T09:35:16;22.40;66.60
40023;DHT22;25713;-35.352;149.036;2023-12-07T09:37:46;22.40;66.80
40023;DHT22;25713;-35.352;149.036;2023-12-07T09:40:19;22.40;67.20
40023;DHT22;25713;-35.352;149.036;2023-12-07T09:42:50;22.40;67.00
40023;DHT22;25713;-35.352;149.036;2023-12-07T09:45:23;22.40;67.30
40023;DHT22;25713;-35.352;149.036;2023-12-07T09:47:53;22.40;66.90
40023;DHT22;25713;-35.352;149.036;2023-12-07T09:50:23;22.40;66.80
40023;DHT22;25713;-35.352;149.036;2023-12-07T09:52:53;22.40;66.40
40023;DHT22;25713;-35.352;149.036;2023-12-07T09:55:23;22.40;66.60
40023;DHT22;25713;-35.352;149.036;2023-12-07T09:57:53;22.40;66.10
40023;DHT22;25713;-35.352;149.036;2023-12-07T10:00:26;22.40;66.50
40023;DHT22;25713;-35.352;149.036;2023-12-07T10:02:56;22.40;66.60
40023;DHT22;25713;-35.352;149.036;2023-12-07T10:05:25;22.30;66.80
40023;DHT22;25713;-35.352;149.036;2023-12-07T10:07:55;22.30;66.30
40023;DHT22;25713;-35.352;149.036;2023-12-07T10:10:24;22.30;66.50
40023;DHT22;25713;-35.352;149.036;2023-12-07T10:12:54;22.30;67.00
40023;DHT22;25713;-35.352;149.036;2023-12-07T10:15:27;22.30;66.60
40023;DHT22;25713;-35.352;149.036;2023-12-07T10:17:58;22.40;65.70
40023;DHT22;25713;-35.352;149.036;2023-12-07T10:20:29;22.40;65.70
40023;DHT22;25713;-35.352;149.036;2023-12-07T10:23:05;22.40;65.10
40023;DHT22;25713;-35.352;149.036;2023-12-07T10:25:40;22.30;65.70
40023;DHT22;25713;-35.352;149.036;2023-12-07T10:28:10;22.40;65.40
40023;DHT22;25713;-35.352;149.036;2023-12-07T10:30:43;22.30;66.10
40023;DHT22;25713;-35.352;149.036;2023-12-07T10:33:13;22.30;65.40
40023;DHT22;25713;-35.352;149.036;2023-12-07T10:35:43;22.30;65.60
40023;DHT22;25713;-35.352;149.036;2023-12-07T10:38:12;22.30;65.00
40023;DHT22;25713;-35.352;149.036;2023-12-07T10:40:42;22.30;65.40
40023;DHT22;25713;-35.352;149.036;2023-12-07T10:43:13;22.30;65.50
40023;DHT22;25713;-35.352;149.036;2023-12-07T10:45:48;22.30;66.60
40023;DHT22;25713;-35.352;149.036;2023-12-07T10:48:18;22.20;66.70
40023;DHT22;25713;-35.352;149.036;2023-12-07T10:50:50;22.20;66.40
40023;DHT22;25713;-35.352;149.036;2023-12-07T10:53:27;22.20;65.80
40023;DHT22;25713;-35.352;149.036;2023-12-07T10:56:01;22.20;65.60
40023;DHT22;25713;-35.352;149.036;2023-12-07T10:58:35;22.20;66.10
40023;DHT22;25713;-35.352;149.036;2023-12-07T11:01:08;22.20;66.80
40023;DHT22;25713;-35.352;149.036;2023-12-07T11:03:38;22.10;66.50
40023;DHT22;25713;-35.352;149.036;2023-12-07T11:06:08;22.10;66.30
40023;DHT22;25713;-35.352;149.036;2023-12-07T11:08:39;22.10;66.30
40023;DHT22;25713;-35.352;149.036;2023-12-07T11:11:15;22.10;66.50
40023;DHT22;25713;-35.352;149.036;2023-12-07T11:13:49;22.10;66.70
40023;DHT22;25713;-35.352;149.036;2023-12-07T11:16:35;22.10;66.30
40023;DHT22;25713;-35.352;149.036;2023-12-07T11:19:04;22.10;67.00
40023;DHT22;25713;-35.352;149.036;2023-12-07T11:21:35;22.10;67.00
40023;DHT22;25713;-35.352;149.036;2023-12-07T11:24:04;22.10;67.10
40023;DHT22;25713;-35.352;149.036;2023-12-07T11:26:34;22.00;67.80
40023;DHT22;25713;-35.352;149.036;2023-12-07T11:29:04;22.00;67.80
40023;DHT22;25713;-35.352;149.036;2023-12-07T11:31:38;22.00;67.70
40023;DHT22;25713;-35.352;149.036;2023-12-07T11:34:08;22.00;68.40
40023;DHT22;25713;-35.352;149.036;2023-12-07T11:36:37;21.90;68.90
40023;DHT22;25713;-35.352;149.036;2023-12-07T11:39:19;21.90;68.90
40023;DHT22;25713;-35.352;149.036;2023-12-07T11:41:53;21.90;69.30
40023;DHT22;25713;-35.352;149.036;2023-12-07T11:44:34;21.90;69.10
40023;DHT22;25713;-35.352;149.036;2023-12-07T11:47:05;21.90;69.50
40023;DHT22;25713;-35.352;149.036;2023-12-07T11:49:35;21.90;68.90
40023;DHT22;25713;-35.352;149.036;2023-12-07T11:52:14;21.80;70.60
40023;DHT22;25713;-35.352;149.036;2023-12-07T11:54:45;21.80;70.80
40023;DHT22;25713;-35.352;149.036;2023-12-07T11:57:15;21.80;70.60
40023;DHT22;25713;-35.352;149.036;2023-12-07T11:59:46;21.80;70.60
40023;DHT22;25713;-35.352;149.036;2023-12-07T12:02:17;21.80;71.20
40023;DHT22;25713;-35.352;149.036;2023-12-07T12:04:46;21.80;70.80
40023;DHT22;25713;-35.352;149.036;2023-12-07T12:07:16;21.70;71.10
40023;DHT22;25713;-35.352;149.036;2023-12-07T12:09:45;21.80;70.00
40023;DHT22;25713;-35.352;149.036;2023-12-07T12:12:15;21.70;70.60
40023;DHT22;25713;-35.352;149.036;2023-12-07T12:14:44;21.80;69.80
40023;DHT22;25713;-35.352;149.036;2023-12-07T12:17:18;21.70;70.10
40023;DHT22;25713;-35.352;149.036;2023-12-07T12:19:48;21.80;70.30
40023;DHT22;25713;-35.352;149.036;2023-12-07T12:22:17;21.70;69.30
40023;DHT22;25713;-35.352;149.036;2023-12-07T12:24:47;21.70;70.40
40023;DHT22;25713;-35.352;149.036;2023-12-07T12:27:17;21.70;70.40
40023;DHT22;25713;-35.352;149.036;2023-12-07T12:29:46;21.70;70.50
40023;DHT22;25713;-35.352;149.036;2023-12-07T12:32:18;21.70;71.10
40023;DHT22;25713;-35.352;149.036;2023-12-07T12:34:51;21.70;71.00
40023;DHT22;25713;-35.352;149.036;2023-12-07T12:37:21;21.70;72.70
40023;DHT22;25713;-35.352;149.036;2023-12-07T12:39:51;21.60;71.80
40023;DHT22;25713;-35.352;149.036;2023-12-07T12:42:20;21.70;72.20
40023;DHT22;25713;-35.352;149.036;2023-12-07T12:44:50;21.70;73.00
40023;DHT22;25713;-35.352;149.036;2023-12-07T12:47:22;21.60;72.20
40023;DHT22;25713;-35.352;149.036;2023-12-07T12:49:52;21.70;73.90
40023;DHT22;25713;-35.352;149.036;2023-12-07T12:52:23;21.60;73.00
40023;DHT22;25713;-35.352;149.036;2023-12-07T12:54:53;21.60;72.50
40023;DHT22;25713;-35.352;149.036;2023-12-07T12:57:24;21.60;72.60
40023;DHT22;25713;-35.352;149.036;2023-12-07T12:59:54;21.50;73.80
40023;DHT22;25713;-35.352;149.036;2023-12-07T13:02:25;21.60;72.70
40023;DHT22;25713;-35.352;149.036;2023-12-07T13:04:55;21.50;72.60
40023;DHT22;25713;-35.352;149.036;2023-12-07T13:07:24;21.60;73.10
40023;DHT22;25713;-35.352;149.036;2023-12-07T13:09:54;21.50;73.40
40023;DHT22;25713;-35.352;149.036;2023-12-07T13:12:23;21.50;73.60
40023;DHT22;25713;-35.352;149.036;2023-12-07T13:14:53;21.60;73.80
40023;DHT22;25713;-35.352;149.036;2023-12-07T13:17:25;21.60;73.80
40023;DHT22;25713;-35.352;149.036;2023-12-07T13:19:54;21.50;74.10
40023;DHT22;25713;-35.352;149.036;2023-12-07T13:22:24;21.50;73.90
40023;DHT22;25713;-35.352;149.036;2023-12-07T13:24:54;21.50;73.40
40023;DHT22;25713;-35.352;149.036;2023-12-07T13:27:23;21.50;73.50
40023;DHT22;25713;-35.352;149.036;2023-12-07T13:29:53;21.40;74.00
40023;DHT22;25713;-35.352;149.036;2023-12-07T13:32:24;21.40;73.20
40023;DHT22;25713;-35.352;149.036;2023-12-07T13:34:54;21.40;72.20
40023;DHT22;25713;-35.352;149.036;2023-12-07T13:37:23;21.40;72.50
40023;DHT22;25713;-35.352;149.036;2023-12-07T13:39:52;21.40;73.20
40023;DHT22;25713;-35.352;149.036;2023-12-07T13:42:22;21.40;73.00
40023;DHT22;25713;-35.352;149.036;2023-12-07T13:44:51;21.40;72.30
40023;DHT22;25713;-35.352;149.036;2023-12-07T13:47:21;21.40;72.30
40023;DHT22;25713;-35.352;149.036;2023-12-07T13:49:52;21.40;72.90
40023;DHT22;25713;-35.352;149.036;2023-12-07T13:52:22;21.40;73.60
40023;DHT22;25713;-35.352;149.036;2023-12-07T13:54:51;21.40;74.80
40023;DHT22;25713;-35.352;149.036;2023-12-07T13:57:21;21.40;75.30
40023;DHT22;25713;-35.352;149.036;2023-12-07T13:59:51;21.40;74.50
40023;DHT22;25713;-35.352;149.036;2023-12-07T14:02:20;21.40;75.70
40023;DHT22;25713;-35.352;149.036;2023-12-07T14:04:52;21.40;75.40
40023;DHT22;25713;-35.352;149.036;2023-12-07T14:07:21;21.40;75.70
40023;DHT22;25713;-35.352;149.036;2023-12-07T14:09:52;21.40;76.80
40023;DHT22;25713;-35.352;149.036;2023-12-07T14:12:22;21.40;77.20
40023;DHT22;25713;-35.352;149.036;2023-12-07T14:14:51;21.40;76.90
40023;DHT22;25713;-35.352;149.036;2023-12-07T14:17:21;21.30;77.50
40023;DHT22;25713;-35.352;149.036;2023-12-07T14:19:52;21.30;76.20
40023;DHT22;25713;-35.352;149.036;2023-12-07T14:22:22;21.20;75.50
40023;DHT22;25713;-35.352;149.036;2023-12-07T14:24:51;21.20;75.70
40023;DHT22;25713;-35.352;149.036;2023-12-07T14:27:21;21.30;75.60
40023;DHT22;25713;-35.352;149.036;2023-12-07T14:29:50;21.30;76.90
40023;DHT22;25713;-35.352;149.036;2023-12-07T14:32:20;21.30;76.60
40023;DHT22;25713;-35.352;149.036;2023-12-07T14:34:49;21.30;76.60
40023;DHT22;25713;-35.352;149.036;2023-12-07T14:37:21;21.20;75.20
40023;DHT22;25713;-35.352;149.036;2023-12-07T14:39:51;21.20;75.20
40023;DHT22;25713;-35.352;149.036;2023-12-07T14:42:20;21.20;75.90
40023;DHT22;25713;-35.352;149.036;2023-12-07T14:44:50;21.20;74.50
40023;DHT22;25713;-35.352;149.036;2023-12-07T15:58:14;20.90;76.80
40023;DHT22;25713;-35.352;149.036;2023-12-07T16:00:44;20.90;77.60
40023;DHT22;25713;-35.352;149.036;2023-12-07T16:03:13;20.90;78.10
40023;DHT22;25713;-35.352;149.036;2023-12-07T16:05:43;21.00;78.50
40023;DHT22;25713;-35.352;149.036;2023-12-07T16:08:12;21.00;78.60
40023;DHT22;25713;-35.352;149.036;2023-12-07T16:10:41;21.00;78.80
40023;DHT22;25713;-35.352;149.036;2023-12-07T16:13:13;21.00;78.90
40023;DHT22;25713;-35.352;149.036;2023-12-07T16:15:42;21.00;79.00
40023;DHT22;25713;-35.352;149.036;2023-12-07T16:18:12;21.00;79.10